Strona główna
METAR-TAF:

METAR-TAF

Lotnisko :

Port lotniczy Reus

Reus, Hiszpania

Szerokość geograficzna: 41-09N, Długość geograficzna: 001-10E, wysokość: 71 m

Aktualna obserwacja pogody

Raport powstał 38 minut temu, godzina 03:00 UTC
Wiatr 15 kt od zachód, zmienny między zachodnio-południowy zachód i zachodnio-północny zachód
Temperatura 11°C
Wilgotność 58%
Ciśnienie 1022 hPa
Widzialność 10 km lub więcej

METAR: LERS 100300Z AUTO 27015KT 240V300 9999 NCD 11/03 Q1022

czas: 04:38 (03:38 UTC)

Prognoza

Raport powstał 1 godzina i 38 minut temu, godzina 02:00 UTC
Prognoza ważna od 10 godzina 03 UTC do 11 godzina 03 UTC
Wiatr 16 kt od zachód
Widzialność 10 km lub więcej
Brak chmur poniżej 1500 m i brak chmur cumulonimbus
Stopniowe zmiany
od 10 godzina 06 UTC do 10 godzina 08 UTC
Wiatr 4 kt z kierunków zmiennych

TAF: LERS 100200Z 1003/1103 28016KT CAVOK TX15/1012Z TN04/1006Z BECMG 1006/1008 VRB04KT

Obserwacja i prognoza pogody dla ponad 4000 lotnisk (raport METAR i TAF).

Dostępne stacje oznaczono żółtymi i czerwonymi punktami na mapie.

Najedź kursorem aby zobaczyć nazwę stacji.

Kliknij aby zobaczyć obserwacje i prognozy pogody.

Aby zmienić mapę: kliknij na zielony przycisk z czarnym krzyżykiem, aby powiększyć; na zielony przycisk z myślnikiem, aby pomniejszyć; na zielone strzałki, aby przejść do map sąsiednich.


METAR-TAF: